Time;durP1;ratioP1;P1;durP2;ratioP2;P2;SDS_P1;SDS_P2;PMS_P1;PMS_P2;Temp;Humidity;BMP_temperature;BMP_pressure;BME280_temperature;BME280_humidity;BME280_pressure;Samples;Min_cycle;Max_cycle;Signal;HPM_P1;HPM_P2
2022/07/12 00:02:51;;;;;;;0.30;0.20;;;25.10;54.00;;;;;;6272876;28;20170;-45
2022/07/12 00:05:54;;;;;;;0.20;0.20;;;25.00;54.00;;;;;;6272488;28;20415;-43
2022/07/12 00:08:56;;;;;;;0.20;0.20;;;24.90;54.00;;;;;;6270796;28;20032;-44
2022/07/12 00:11:58;;;;;;;0.20;0.20;;;25.00;54.00;;;;;;6274676;28;20086;-44
2022/07/12 00:14:59;;;;;;;0.15;0.15;;;25.00;54.10;;;;;;6269136;28;20079;-42
2022/07/12 00:18:01;;;;;;;0.20;0.10;;;25.00;54.10;;;;;;6276386;28;22244;-42
2022/07/12 00:21:03;;;;;;;0.22;0.20;;;25.00;54.20;;;;;;6283850;28;20048;-42
2022/07/12 00:24:04;;;;;;;0.20;0.20;;;25.00;54.20;;;;;;6276768;28;20044;-45
2022/07/12 00:27:07;;;;;;;0.25;0.20;;;24.90;54.20;;;;;;6272402;28;21029;-45
2022/07/12 00:30:09;;;;;;;0.20;0.10;;;24.70;54.00;;;;;;6253829;28;20068;-44
2022/07/12 00:33:14;;;;;;;0.30;0.17;;;24.90;54.20;;;;;;6255151;28;20160;-44
2022/07/12 00:36:15;;;;;;;0.10;0.10;;;24.90;54.30;;;;;;6281651;27;20126;-44
2022/07/12 00:39:17;;;;;;;0.20;0.20;;;24.90;54.30;;;;;;6279619;28;20329;-44
2022/07/12 00:42:19;;;;;;;0.00;0.00;;;24.90;54.30;;;;;;6275096;28;20036;-42
2022/07/12 00:45:21;;;;;;;0.20;0.20;;;24.90;54.30;;;;;;6282706;28;20885;-42
2022/07/12 00:48:23;;;;;;;0.20;0.20;;;24.80;54.20;;;;;;6280471;28;20182;-46
2022/07/12 00:51:25;;;;;;;0.20;0.10;;;24.90;54.20;;;;;;6284738;28;20048;-45
2022/07/12 00:54:27;;;;;;;0.17;0.17;;;24.90;54.20;;;;;;6288305;28;21052;-42
2022/07/12 00:57:29;;;;;;;0.10;0.10;;;24.90;54.10;;;;;;6277002;28;20584;-42
2022/07/12 01:00:31;;;;;;;0.10;0.10;;;24.80;54.60;;;;;;6271219;28;20457;-45
2022/07/12 01:03:36;;;;;;;0.38;0.20;;;24.90;54.00;;;;;;6279968;28;20044;-46
2022/07/12 01:06:37;;;;;;;0.20;0.20;;;24.80;54.00;;;;;;6290547;28;20563;-43
2022/07/12 01:09:42;;;;;;;0.20;0.20;;;24.80;54.00;;;;;;6279517;28;20369;-44
2022/07/12 01:12:45;;;;;;;0.20;0.20;;;24.80;54.00;;;;;;6276414;28;20042;-43
2022/07/12 01:15:48;;;;;;;0.10;0.10;;;24.80;54.00;;;;;;6281426;28;20158;-48
2022/07/12 01:18:50;;;;;;;0.10;0.10;;;24.80;54.00;;;;;;6269687;28;20131;-47
2022/07/12 01:21:53;;;;;;;0.15;0.15;;;24.80;54.10;;;;;;6298857;28;20079;-44
2022/07/12 01:24:56;;;;;;;0.45;0.20;;;24.80;54.10;;;;;;6279519;28;20047;-46
2022/07/12 01:27:58;;;;;;;0.20;0.15;;;24.80;54.20;;;;;;6270179;28;20589;-45
2022/07/12 01:30:59;;;;;;;0.20;0.20;;;24.80;54.20;;;;;;6269283;28;20082;-42
2022/07/12 01:34:02;;;;;;;0.30;0.25;;;24.80;54.30;;;;;;6266709;28;20159;-43
2022/07/12 01:37:03;;;;;;;0.20;0.20;;;24.80;54.30;;;;;;6265576;28;20312;-44
2022/07/12 01:40:08;;;;;;;0.10;0.10;;;24.80;54.40;;;;;;6271399;28;20276;-43
2022/07/12 01:43:11;;;;;;;0.22;0.20;;;24.90;54.50;;;;;;6264340;28;20094;-45
2022/07/12 01:46:12;;;;;;;0.20;0.20;;;24.70;54.40;;;;;;6274720;28;20144;-46
2022/07/12 01:49:14;;;;;;;0.20;0.20;;;24.80;54.40;;;;;;6277607;28;20300;-45
2022/07/12 01:52:17;;;;;;;0.17;0.17;;;24.70;54.30;;;;;;6280934;28;20031;-44
2022/07/12 01:55:20;;;;;;;0.40;0.32;;;24.70;54.40;;;;;;6267184;28;20365;-47
2022/07/12 01:58:22;;;;;;;0.20;0.20;;;24.70;54.40;;;;;;6278852;28;20369;-43
2022/07/12 02:01:24;;;;;;;0.20;0.20;;;24.70;54.40;;;;;;6286091;28;20370;-46
2022/07/12 02:04:26;;;;;;;0.20;0.15;;;24.70;54.30;;;;;;6281119;28;20631;-42
2022/07/12 02:07:28;;;;;;;0.30;0.20;;;24.70;54.30;;;;;;6285970;28;20380;-41
2022/07/12 02:10:30;;;;;;;0.13;0.13;;;24.70;54.30;;;;;;6259306;28;20524;-46
2022/07/12 02:13:32;;;;;;;0.10;0.10;;;24.70;54.30;;;;;;6279165;28;20340;-42
2022/07/12 02:16:33;;;;;;;1.02;0.20;;;24.60;54.30;;;;;;6278151;28;20070;-42
2022/07/12 02:19:36;;;;;;;0.52;0.30;;;24.60;54.30;;;;;;6282033;28;20834;-43
2022/07/12 02:22:39;;;;;;;0.20;0.20;;;24.60;54.30;;;;;;6277597;28;20353;-44
2022/07/12 02:25:41;;;;;;;0.10;0.10;;;24.50;54.30;;;;;;6253188;28;20145;-46
2022/07/12 02:28:43;;;;;;;0.25;0.20;;;24.60;54.50;;;;;;6269353;28;21739;-44
2022/07/12 02:31:44;;;;;;;0.20;0.20;;;24.60;54.50;;;;;;6266749;28;20371;-45
2022/07/12 02:34:46;;;;;;;0.28;0.20;;;24.60;54.60;;;;;;6268654;28;20051;-43
2022/07/12 02:37:48;;;;;;;0.50;0.10;;;24.60;54.70;;;;;;6269194;28;20569;-46
2022/07/12 02:40:53;;;;;;;0.50;0.20;;;24.60;54.90;;;;;;6265061;28;20075;-42
2022/07/12 02:43:54;;;;;;;0.20;0.20;;;24.60;55.00;;;;;;6269042;28;20723;-42
2022/07/12 02:46:56;;;;;;;0.32;0.20;;;24.60;55.10;;;;;;6271694;28;20339;-43
2022/07/12 02:49:58;;;;;;;0.20;0.20;;;24.50;55.20;;;;;;6273927;28;20460;-43
2022/07/12 02:53:00;;;;;;;0.20;0.20;;;24.50;55.30;;;;;;6283721;28;20342;-42
2022/07/12 02:56:03;;;;;;;0.20;0.20;;;24.50;55.40;;;;;;6282307;28;20211;-45
2022/07/12 02:59:04;;;;;;;0.30;0.30;;;24.40;55.40;;;;;;6265528;27;20254;-44
2022/07/12 03:02:06;;;;;;;0.20;0.20;;;24.50;55.60;;;;;;6276404;28;20772;-44
2022/07/12 03:05:12;;;;;;;0.30;0.28;;;24.50;55.60;;;;;;6278684;28;20336;-43
2022/07/12 03:08:14;;;;;;;0.40;0.20;;;24.50;55.80;;;;;;6282902;28;20575;-44
2022/07/12 03:11:16;;;;;;;0.20;0.20;;;24.60;56.00;;;;;;6264901;28;20437;-43
2022/07/12 03:14:18;;;;;;;0.10;0.10;;;24.50;56.00;;;;;;6268162;28;20843;-42
2022/07/12 03:17:20;;;;;;;0.77;0.20;;;24.50;56.00;;;;;;6267620;28;20157;-42
2022/07/12 03:20:23;;;;;;;0.20;0.20;;;24.50;56.10;;;;;;6265648;28;20047;-42
2022/07/12 03:23:24;;;;;;;0.60;0.30;;;24.50;56.20;;;;;;6267257;28;20049;-43
2022/07/12 03:26:26;;;;;;;0.20;0.20;;;24.40;56.10;;;;;;6264777;28;20514;-44
2022/07/12 03:29:28;;;;;;;0.25;0.20;;;24.40;56.20;;;;;;6266942;28;20074;-47
2022/07/12 03:32:29;;;;;;;0.75;0.20;;;24.40;56.30;;;;;;6268632;28;20197;-44
2022/07/12 03:35:35;;;;;;;1.25;0.20;;;24.40;56.50;;;;;;6277361;28;20126;-43
2022/07/12 03:38:36;;;;;;;0.20;0.10;;;24.30;56.60;;;;;;6273967;28;20066;-41
2022/07/12 03:41:42;;;;;;;0.10;0.10;;;24.20;56.70;;;;;;6271694;28;20040;-45
2022/07/12 03:44:43;;;;;;;0.25;0.20;;;24.20;56.70;;;;;;6267735;28;20454;-43
2022/07/12 03:47:45;;;;;;;0.20;0.20;;;24.20;56.70;;;;;;6266049;28;20304;-42
2022/07/12 03:50:46;;;;;;;1.40;0.38;;;24.20;56.70;;;;;;6268472;28;20583;-45
2022/07/12 03:53:48;;;;;;;1.15;0.20;;;24.20;56.60;;;;;;6268581;28;20626;-41
2022/07/12 04:00:09;;;;;;;0.30;0.30;;;24.20;56.50;;;;;;6267769;28;20375;-42
2022/07/12 04:03:10;;;;;;;0.20;0.20;;;24.30;56.50;;;;;;6283771;28;20197;-44
2022/07/12 04:06:12;;;;;;;1.15;0.20;;;24.30;56.40;;;;;;6279245;28;21012;-43
2022/07/12 04:09:14;;;;;;;0.20;0.10;;;24.30;56.40;;;;;;6276555;28;20043;-43
2022/07/12 04:12:16;;;;;;;0.10;0.10;;;24.30;56.40;;;;;;6259534;28;21356;-41
2022/07/12 04:15:17;;;;;;;0.30;0.20;;;24.30;56.30;;;;;;6282022;28;20514;-43
2022/07/12 04:18:19;;;;;;;0.20;0.20;;;24.20;56.30;;;;;;6275601;28;20045;-46
2022/07/12 04:21:21;;;;;;;0.10;0.10;;;24.30;56.30;;;;;;6278552;28;20078;-42
2022/07/12 04:24:23;;;;;;;0.30;0.30;;;24.30;56.40;;;;;;6269782;28;20603;-44
2022/07/12 04:27:26;;;;;;;0.17;0.17;;;24.30;56.30;;;;;;6259657;28;20074;-42
2022/07/12 04:30:29;;;;;;;0.20;0.15;;;24.30;56.30;;;;;;6261989;28;20121;-42
2022/07/12 04:33:30;;;;;;;0.20;0.20;;;24.20;56.30;;;;;;6255985;28;20344;-44
2022/07/12 04:36:35;;;;;;;0.28;0.22;;;24.30;56.30;;;;;;6263275;28;20704;-45
2022/07/12 04:39:36;;;;;;;0.10;0.10;;;24.30;56.30;;;;;;6255824;28;20234;-41
2022/07/12 04:42:41;;;;;;;0.50;0.15;;;24.10;56.20;;;;;;6239523;28;20035;-44
2022/07/12 04:45:44;;;;;;;0.20;0.20;;;24.30;56.40;;;;;;6262258;28;20079;-44
2022/07/12 04:48:45;;;;;;;0.20;0.20;;;24.20;56.30;;;;;;6274225;28;20354;-41
2022/07/12 04:51:50;;;;;;;0.35;0.20;;;24.20;56.30;;;;;;6273870;28;20891;-43
2022/07/12 04:54:51;;;;;;;0.20;0.20;;;24.20;56.30;;;;;;6272857;28;20075;-42
2022/07/12 04:57:53;;;;;;;0.43;0.20;;;24.30;56.40;;;;;;6259988;28;20084;-43
2022/07/12 05:00:55;;;;;;;0.20;0.20;;;24.20;56.30;;;;;;6258887;28;20048;-41
2022/07/12 05:03:57;;;;;;;0.22;0.20;;;24.00;56.20;;;;;;6263183;28;20157;-41
2022/07/12 05:07:01;;;;;;;0.28;0.20;;;24.20;56.30;;;;;;6276570;28;20857;-43
2022/07/12 05:10:04;;;;;;;0.20;0.20;;;24.20;56.30;;;;;;6284002;28;20106;-42
2022/07/12 05:13:06;;;;;;;0.22;0.20;;;24.10;56.30;;;;;;6282126;28;20044;-41
2022/07/12 05:16:08;;;;;;;0.43;0.25;;;24.20;56.90;;;;;;6284327;28;20972;-49
2022/07/12 05:19:10;;;;;;;0.28;0.20;;;24.10;56.20;;;;;;6281810;28;20082;-42
2022/07/12 05:22:12;;;;;;;0.20;0.20;;;24.10;56.20;;;;;;6284678;28;20158;-44
2022/07/12 05:25:13;;;;;;;0.63;0.30;;;24.20;56.30;;;;;;6285938;28;20882;-44
2022/07/12 05:28:16;;;;;;;0.30;0.30;;;24.10;56.30;;;;;;6278594;28;20036;-43
2022/07/12 05:31:18;;;;;;;0.45;0.22;;;24.10;56.40;;;;;;6283121;28;21057;-43
2022/07/12 05:34:20;;;;;;;0.28;0.20;;;24.20;56.50;;;;;;6285720;28;20047;-41
2022/07/12 05:37:25;;;;;;;0.38;0.30;;;24.10;56.50;;;;;;6275984;28;20040;-42
2022/07/12 05:40:27;;;;;;;0.30;0.30;;;24.20;56.60;;;;;;6263223;28;20051;-42
2022/07/12 05:43:29;;;;;;;0.17;0.17;;;24.20;56.60;;;;;;6278748;28;20158;-42
2022/07/12 05:46:31;;;;;;;0.32;0.20;;;24.20;56.60;;;;;;6272442;28;21543;-41
2022/07/12 05:49:33;;;;;;;0.60;0.30;;;24.20;56.60;;;;;;6280768;28;20115;-41
2022/07/12 05:55:52;;;;;;;0.50;0.20;;;24.20;56.50;;;;;;6280938;28;20110;-44
2022/07/12 05:58:54;;;;;;;0.20;0.20;;;24.20;56.50;;;;;;6254358;28;20082;-41
2022/07/12 06:01:56;;;;;;;0.25;0.20;;;24.20;56.50;;;;;;6277711;28;20048;-41
2022/07/12 06:04:57;;;;;;;0.20;0.20;;;24.20;56.50;;;;;;6269868;28;20082;-42
2022/07/12 06:08:02;;;;;;;0.38;0.20;;;24.30;56.50;;;;;;6275472;28;20781;-43
2022/07/12 06:11:04;;;;;;;0.25;0.22;;;24.20;56.40;;;;;;6268631;28;20056;-42
2022/07/12 06:14:06;;;;;;;0.20;0.20;;;24.30;56.40;;;;;;6263516;28;20097;-43
2022/07/12 06:17:08;;;;;;;0.82;0.20;;;24.20;56.30;;;;;;6256737;28;20083;-42
2022/07/12 06:20:10;;;;;;;0.20;0.20;;;24.20;56.30;;;;;;6258119;28;20035;-43
2022/07/12 06:23:12;;;;;;;0.43;0.20;;;24.00;56.20;;;;;;6253535;28;20112;-46
2022/07/12 06:26:14;;;;;;;0.30;0.30;;;24.20;56.20;;;;;;6239109;28;20788;-42
2022/07/12 06:29:16;;;;;;;0.30;0.30;;;24.20;56.20;;;;;;6224600;28;20063;-43
2022/07/12 06:32:18;;;;;;;0.40;0.20;;;24.30;56.30;;;;;;6234415;28;20357;-42
2022/07/12 06:35:20;;;;;;;0.32;0.30;;;24.30;56.40;;;;;;6227788;28;20048;-44
2022/07/12 06:38:22;;;;;;;0.40;0.30;;;24.20;56.30;;;;;;6227078;28;20056;-44
2022/07/12 06:41:24;;;;;;;0.50;0.40;;;24.20;56.30;;;;;;6237374;28;22491;-41
2022/07/12 06:44:26;;;;;;;0.70;0.45;;;24.20;56.40;;;;;;6231821;28;20083;-47
2022/07/12 06:47:31;;;;;;;0.30;0.30;;;24.20;56.40;;;;;;6226939;28;20048;-42
2022/07/12 06:50:33;;;;;;;0.47;0.38;;;24.20;56.50;;;;;;6230141;28;20067;-42
2022/07/12 06:53:35;;;;;;;0.30;0.20;;;24.20;56.50;;;;;;6238521;28;20097;-42
2022/07/12 06:56:36;;;;;;;0.82;0.40;;;24.20;56.50;;;;;;6221793;28;20079;-42
2022/07/12 06:59:38;;;;;;;0.38;0.20;;;24.30;56.50;;;;;;6186460;28;20355;-40
2022/07/12 07:02:40;;;;;;;0.55;0.40;;;24.30;56.50;;;;;;6172540;28;22198;-43
2022/07/12 07:05:42;;;;;;;0.38;0.30;;;24.30;56.40;;;;;;6156821;28;20047;-41
2022/07/12 07:08:44;;;;;;;0.63;0.38;;;24.30;56.30;;;;;;6174536;28;20047;-41
2022/07/12 07:11:46;;;;;;;0.90;0.52;;;24.40;56.20;;;;;;6147041;28;20051;-43
2022/07/12 07:14:48;;;;;;;1.33;0.30;;;24.50;56.20;;;;;;6151984;28;20138;-45
2022/07/12 07:17:50;;;;;;;2.10;0.47;;;24.50;56.10;;;;;;6119618;28;22303;-41
2022/07/12 07:20:52;;;;;;;0.57;0.28;;;24.50;56.00;;;;;;6147911;28;20039;-40
2022/07/12 07:23:54;;;;;;;1.83;0.20;;;24.50;55.90;;;;;;6156386;28;20048;-41
2022/07/12 07:26:56;;;;;;;0.32;0.20;;;24.50;55.90;;;;;;6170455;27;20048;-40
2022/07/12 07:33:16;;;;;;;1.35;0.20;;;24.70;55.90;;;;;;6132260;28;20044;-40
2022/07/12 07:36:18;;;;;;;0.17;0.15;;;24.70;55.80;;;;;;6155817;28;20047;-45
2022/07/12 07:39:21;;;;;;;0.38;0.22;;;24.90;55.90;;;;;;6167768;28;21954;-44
2022/07/12 07:42:23;;;;;;;1.27;0.20;;;24.80;55.80;;;;;;6150816;28;20035;-45
2022/07/12 07:45:25;;;;;;;0.30;0.20;;;24.80;55.60;;;;;;6145011;28;20087;-44
2022/07/12 07:48:28;;;;;;;0.73;0.30;;;24.80;55.60;;;;;;6179323;28;20079;-45
2022/07/12 07:51:30;;;;;;;0.20;0.20;;;24.90;55.60;;;;;;6159505;28;20091;-43
2022/07/12 07:54:31;;;;;;;0.85;0.30;;;24.90;55.50;;;;;;6120219;28;20174;-45
2022/07/12 07:57:33;;;;;;;0.22;0.20;;;24.90;55.50;;;;;;6169701;27;20047;-44
2022/07/12 08:00:35;;;;;;;2.40;0.20;;;24.90;55.70;;;;;;6139246;28;20083;-43
2022/07/12 08:03:37;;;;;;;0.50;0.20;;;25.00;55.70;;;;;;6155359;28;21628;-43
2022/07/12 08:06:39;;;;;;;0.20;0.20;;;24.90;55.50;;;;;;6142671;28;20637;-42
2022/07/12 08:09:40;;;;;;;0.20;0.20;;;25.00;55.60;;;;;;6136531;27;21411;-45
2022/07/12 08:12:42;;;;;;;0.30;0.30;;;25.00;55.60;;;;;;6104545;28;22396;-44
2022/07/12 08:15:44;;;;;;;0.10;0.10;;;25.00;55.70;;;;;;6125899;27;20051;-43
2022/07/12 08:18:46;;;;;;;0.20;0.20;;;25.00;55.60;;;;;;6119238;28;20697;-46
2022/07/12 08:21:49;;;;;;;0.90;0.20;;;25.20;55.70;;;;;;6143535;28;20039;-44
2022/07/12 08:24:52;;;;;;;0.20;0.20;;;25.00;55.60;;;;;;6133123;27;20058;-46
2022/07/12 08:27:55;;;;;;;0.30;0.20;;;25.00;55.60;;;;;;6149031;28;20040;-50
2022/07/12 08:30:58;;;;;;;0.30;0.30;;;24.90;55.50;;;;;;6099111;28;20043;-44
2022/07/12 08:34:00;;;;;;;0.30;0.30;;;25.10;56.20;;;;;;6105721;28;20040;-48
2022/07/12 08:37:02;;;;;;;0.25;0.20;;;25.10;55.60;;;;;;6125556;28;20170;-46
2022/07/12 08:40:05;;;;;;;0.68;0.30;;;25.10;55.60;;;;;;6121642;28;21573;-42
2022/07/12 08:43:07;;;;;;;0.20;0.20;;;25.10;55.70;;;;;;6139504;28;20181;-44
2022/07/12 08:46:11;;;;;;;0.88;0.30;;;25.10;55.60;;;;;;6108550;28;20174;-45
2022/07/12 08:49:13;;;;;;;0.20;0.20;;;25.10;55.70;;;;;;6119483;28;20040;-47
2022/07/12 08:52:25;;;;;;;0.30;0.20;;;25.10;55.70;;;;;;6135212;28;20080;-45
2022/07/12 08:55:28;;;;;;;0.43;0.20;;;25.10;55.70;;;;;;6106624;28;20035;-45
2022/07/12 08:58:31;;;;;;;0.30;0.30;;;25.10;55.60;;;;;;6106975;28;20063;-46
2022/07/12 09:01:50;;;;;;;0.20;0.20;;;25.20;55.50;;;;;;6119876;27;20044;-47
2022/07/12 09:05:07;;;;;;;0.40;0.20;;;25.20;55.40;;;;;;6103476;28;20067;-42
2022/07/12 09:08:10;;;;;;;0.20;0.20;;;25.10;55.70;;;;;;6128166;28;20158;-40
2022/07/12 09:11:16;;;;;;;0.52;0.20;;;25.20;55.40;;;;;;6096374;28;20082;-40
2022/07/12 09:14:20;;;;;;;0.30;0.30;;;25.00;55.10;;;;;;6121889;28;20047;-44
2022/07/12 09:17:22;;;;;;;0.30;0.25;;;25.10;55.10;;;;;;6118337;28;21576;-41
2022/07/12 09:20:26;;;;;;;0.30;0.30;;;25.10;55.10;;;;;;6134555;28;22607;-42
2022/07/12 09:23:27;;;;;;;0.20;0.20;;;25.10;55.00;;;;;;6123606;28;20043;-43
2022/07/12 09:26:31;;;;;;;0.38;0.15;;;25.10;54.80;;;;;;6116132;28;20052;-40
2022/07/12 09:29:46;;;;;;;0.20;0.20;;;25.10;54.50;;;;;;6104998;28;24392;-40
2022/07/12 09:36:10;;;;;;;0.77;0.20;;;25.20;54.50;;;;;;6127633;28;20055;-43
2022/07/12 09:39:12;;;;;;;0.35;0.20;;;25.10;54.30;;;;;;6141858;28;20524;-42
2022/07/12 09:42:14;;;;;;;0.95;0.20;;;25.00;54.10;;;;;;6140573;28;20036;-41
2022/07/12 09:45:17;;;;;;;0.13;0.13;;;25.10;54.10;;;;;;6122269;28;20090;-40
2022/07/12 09:48:21;;;;;;;0.22;0.22;;;25.10;54.00;;;;;;6144302;28;20052;-41
2022/07/12 09:51:23;;;;;;;0.30;0.25;;;25.10;53.90;;;;;;6098374;28;23429;-42
2022/07/12 09:54:27;;;;;;;0.20;0.20;;;25.20;53.90;;;;;;6130758;28;20265;-44
2022/07/12 09:57:36;;;;;;;0.20;0.20;;;25.20;53.80;;;;;;6130878;28;20054;-40
2022/07/12 10:00:39;;;;;;;0.20;0.20;;;25.20;53.60;;;;;;6122147;27;20048;-40
2022/07/12 10:03:43;;;;;;;0.30;0.20;;;25.10;53.80;;;;;;6117008;28;20048;-40
2022/07/12 10:06:47;;;;;;;0.20;0.20;;;25.10;53.20;;;;;;6079073;28;21779;-41
2022/07/12 10:09:51;;;;;;;0.20;0.20;;;25.20;53.20;;;;;;6127026;28;20044;-42
2022/07/12 10:12:56;;;;;;;0.38;0.20;;;25.10;53.20;;;;;;6118154;28;20100;-39
2022/07/12 10:15:59;;;;;;;0.55;0.20;;;25.10;52.90;;;;;;6131814;28;20083;-40
2022/07/12 10:19:25;;;;;;;0.13;0.13;;;25.10;53.00;;;;;;6117440;28;20550;-40
2022/07/12 10:22:26;;;;;;;0.20;0.20;;;25.20;52.70;;;;;;6143493;28;20050;-40
2022/07/12 10:25:29;;;;;;;0.40;0.30;;;25.10;52.50;;;;;;6148923;28;20117;-40
2022/07/12 10:28:59;;;;;;;0.20;0.20;;;25.20;52.40;;;;;;6132576;28;20047;-41
2022/07/12 10:32:00;;;;;;;0.20;0.20;;;25.20;52.10;;;;;;6125605;28;20772;-40
2022/07/12 10:35:05;;;;;;;0.30;0.30;;;25.10;52.00;;;;;;6139662;28;20075;-40
2022/07/12 10:38:17;;;;;;;0.15;0.15;;;25.10;51.90;;;;;;6152926;28;20105;-41
2022/07/12 10:41:21;;;;;;;0.30;0.20;;;25.10;51.30;;;;;;6153277;28;20928;-40
2022/07/12 10:44:35;;;;;;;0.20;0.20;;;25.20;51.70;;;;;;6166830;28;20054;-40
2022/07/12 10:47:53;;;;;;;0.30;0.10;;;25.10;51.50;;;;;;6184235;28;20036;-40
2022/07/12 10:50:57;;;;;;;0.38;0.25;;;25.20;51.30;;;;;;6169348;28;20117;-42
2022/07/12 10:54:20;;;;;;;0.20;0.20;;;25.20;51.10;;;;;;6167769;28;20063;-41
2022/07/12 10:57:38;;;;;;;1.58;0.20;;;25.10;51.40;;;;;;6196657;28;20054;-43
2022/07/12 11:00:39;;;;;;;0.25;0.20;;;25.10;50.60;;;;;;6142049;28;20055;-40
2022/07/12 11:03:45;;;;;;;0.20;0.20;;;25.20;50.60;;;;;;6187184;28;20047;-43
2022/07/12 11:06:49;;;;;;;0.20;0.17;;;25.10;50.40;;;;;;6198764;27;20047;-41
2022/07/12 11:09:52;;;;;;;0.43;0.20;;;25.20;50.40;;;;;;6178329;28;20171;-40
2022/07/12 11:12:55;;;;;;;0.28;0.10;;;25.10;50.20;;;;;;6160500;28;20044;-41
2022/07/12 11:15:57;;;;;;;0.20;0.10;;;25.20;50.20;;;;;;6185952;28;20056;-40
2022/07/12 11:19:00;;;;;;;0.10;0.10;;;25.20;50.10;;;;;;6190569;28;21431;-40
2022/07/12 11:22:03;;;;;;;0.20;0.20;;;25.20;50.10;;;;;;6204623;28;20051;-42
2022/07/12 11:25:07;;;;;;;0.43;0.20;;;25.10;50.00;;;;;;6201109;28;22078;-42
2022/07/12 11:28:13;;;;;;;0.13;0.13;;;25.30;50.10;;;;;;6172886;28;20154;-42
2022/07/12 11:31:17;;;;;;;0.30;0.25;;;25.30;50.00;;;;;;6196517;28;20040;-42
2022/07/12 11:34:20;;;;;;;0.30;0.30;;;25.20;49.80;;;;;;6155625;28;20043;-40
2022/07/12 11:37:23;;;;;;;0.20;0.20;;;25.30;49.80;;;;;;6185141;28;22098;-40
2022/07/12 11:40:26;;;;;;;0.20;0.20;;;25.30;49.60;;;;;;6173907;28;20039;-42
2022/07/12 11:43:29;;;;;;;0.13;0.10;;;25.20;49.50;;;;;;6165097;28;20040;-40
2022/07/12 11:46:31;;;;;;;0.98;0.20;;;25.20;49.20;;;;;;6157728;28;20819;-40
2022/07/12 11:49:33;;;;;;;1.10;0.20;;;25.20;49.00;;;;;;6182077;28;20051;-42
2022/07/12 11:52:35;;;;;;;0.15;0.10;;;25.20;48.90;;;;;;6154086;28;20050;-39
2022/07/12 11:55:42;;;;;;;0.10;0.10;;;25.30;48.80;;;;;;6151003;28;21733;-40
2022/07/12 11:58:55;;;;;;;0.93;0.20;;;25.30;48.60;;;;;;6130021;28;20089;-41
2022/07/12 12:02:05;;;;;;;1.52;0.20;;;25.30;48.30;;;;;;6118220;28;20043;-43
2022/07/12 12:05:08;;;;;;;0.20;0.20;;;25.30;48.20;;;;;;6130861;28;21834;-42
2022/07/12 12:08:12;;;;;;;0.10;0.10;;;25.30;48.20;;;;;;6134228;28;20039;-41
2022/07/12 12:11:15;;;;;;;0.45;0.38;;;25.20;47.80;;;;;;6110857;28;21563;-41
2022/07/12 12:14:16;;;;;;;1.23;0.22;;;25.30;47.80;;;;;;6127891;28;20040;-41
2022/07/12 12:17:18;;;;;;;0.47;0.17;;;25.20;47.70;;;;;;6119149;28;20050;-40
2022/07/12 12:20:22;;;;;;;0.50;0.15;;;25.30;47.80;;;;;;6129813;28;20120;-40
2022/07/12 12:23:24;;;;;;;0.55;0.20;;;25.40;47.70;;;;;;6104290;28;20822;-42
2022/07/12 12:26:30;;;;;;;0.47;0.30;;;25.40;47.70;;;;;;6097974;28;21171;-43
2022/07/12 12:29:47;;;;;;;0.17;0.10;;;25.40;47.50;;;;;;6100157;28;20158;-41
2022/07/12 12:32:52;;;;;;;1.67;0.20;;;25.50;47.20;;;;;;6101794;28;20071;-40
2022/07/12 12:35:54;;;;;;;0.22;0.15;;;25.40;46.80;;;;;;6115655;28;20074;-40
2022/07/12 12:38:57;;;;;;;0.20;0.20;;;25.60;46.80;;;;;;6113324;28;20226;-42
2022/07/12 12:41:59;;;;;;;0.10;0.10;;;25.60;46.50;;;;;;6122379;28;20091;-41
2022/07/12 12:45:01;;;;;;;0.20;0.10;;;25.50;46.30;;;;;;6134270;28;20130;-42
2022/07/12 12:48:05;;;;;;;0.10;0.10;;;25.60;46.20;;;;;;6129903;28;20257;-45
2022/07/12 12:51:08;;;;;;;0.20;0.10;;;25.70;46.10;;;;;;6134815;28;20169;-41
2022/07/12 12:54:10;;;;;;;0.25;0.25;;;25.80;46.00;;;;;;6092869;28;20072;-40
2022/07/12 12:57:12;;;;;;;0.13;0.13;;;25.60;45.70;;;;;;6104063;28;20036;-40
2022/07/12 13:00:14;;;;;;;0.32;0.10;;;25.80;45.70;;;;;;6086655;28;23488;-41
2022/07/12 13:03:17;;;;;;;0.30;0.30;;;25.80;45.60;;;;;;6051728;27;25339;-42
2022/07/12 13:06:21;;;;;;;0.10;0.10;;;25.80;45.40;;;;;;6042246;28;20047;-40
2022/07/12 13:09:23;;;;;;;0.20;0.20;;;25.70;45.30;;;;;;6084987;28;20052;-40
2022/07/12 13:12:25;;;;;;;0.15;0.15;;;25.80;45.30;;;;;;6093989;28;20048;-42
2022/07/12 13:15:27;;;;;;;0.20;0.15;;;25.90;45.20;;;;;;6106328;28;20054;-41
2022/07/12 13:18:29;;;;;;;0.15;0.10;;;25.80;45.10;;;;;;6116180;28;20109;-41
2022/07/12 13:21:31;;;;;;;0.17;0.17;;;25.80;45.10;;;;;;6112107;28;20047;-39
2022/07/12 13:24:34;;;;;;;1.88;0.30;;;25.80;45.10;;;;;;6103077;27;20054;-40
2022/07/12 13:27:36;;;;;;;0.30;0.28;;;25.80;45.10;;;;;;6105406;28;20066;-40
2022/07/12 13:30:38;;;;;;;0.10;0.10;;;25.80;45.00;;;;;;6118672;27;22225;-41
2022/07/12 13:33:39;;;;;;;0.20;0.20;;;25.80;45.00;;;;;;6097765;28;20074;-42
2022/07/12 13:36:41;;;;;;;0.15;0.10;;;25.80;45.00;;;;;;6112047;28;20066;-41
2022/07/12 13:42:59;;;;;;;0.40;0.15;;;25.80;45.00;;;;;;6130213;28;20050;-43
2022/07/12 13:46:01;;;;;;;0.10;0.10;;;25.70;44.90;;;;;;6117125;28;20174;-43
2022/07/12 13:49:03;;;;;;;0.52;0.35;;;25.70;44.90;;;;;;6113294;28;20156;-40
2022/07/12 13:52:06;;;;;;;0.20;0.20;;;25.80;44.90;;;;;;6121318;28;20062;-41
2022/07/12 13:55:10;;;;;;;0.30;0.20;;;25.80;45.00;;;;;;6101937;28;20771;-42
2022/07/12 13:58:13;;;;;;;1.05;0.20;;;25.80;44.80;;;;;;6055434;27;20074;-44
2022/07/12 14:01:15;;;;;;;0.20;0.20;;;25.90;44.90;;;;;;6118958;28;20196;-40
2022/07/12 14:04:16;;;;;;;0.20;0.20;;;25.80;44.80;;;;;;6107330;28;20389;-43
2022/07/12 14:07:18;;;;;;;0.25;0.20;;;25.80;44.80;;;;;;6118034;28;20149;-43
2022/07/12 14:10:20;;;;;;;0.30;0.20;;;25.90;44.90;;;;;;6100777;28;20240;-40
2022/07/12 14:13:22;;;;;;;0.10;0.10;;;25.90;44.90;;;;;;6130022;28;20040;-43
2022/07/12 14:16:23;;;;;;;0.20;0.20;;;25.90;44.90;;;;;;6115481;28;20143;-41
2022/07/12 14:19:25;;;;;;;0.10;0.10;;;25.90;44.90;;;;;;6100525;28;20055;-44
2022/07/12 14:22:28;;;;;;;0.57;0.20;;;25.90;44.90;;;;;;6109993;28;22157;-42
2022/07/12 14:25:30;;;;;;;1.85;0.28;;;26.00;45.10;;;;;;6126652;28;20039;-43
2022/07/12 14:28:32;;;;;;;0.47;0.20;;;25.90;45.00;;;;;;6116001;28;20089;-45
2022/07/12 14:31:34;;;;;;;0.13;0.13;;;25.90;44.90;;;;;;6093356;28;20043;-44
2022/07/12 14:34:36;;;;;;;0.10;0.10;;;25.90;45.00;;;;;;6078509;28;20055;-41
2022/07/12 14:37:38;;;;;;;0.52;0.30;;;26.00;45.00;;;;;;6110056;28;20040;-40
2022/07/12 14:40:40;;;;;;;0.57;0.13;;;26.00;44.90;;;;;;6067987;28;20044;-42
2022/07/12 14:43:42;;;;;;;0.25;0.20;;;26.00;44.80;;;;;;6125048;28;20105;-43
2022/07/12 14:46:43;;;;;;;0.20;0.20;;;25.90;44.70;;;;;;6097745;28;20588;-44
2022/07/12 14:49:45;;;;;;;0.20;0.20;;;25.90;44.70;;;;;;6115924;28;20048;-41
2022/07/12 14:52:47;;;;;;;1.02;0.40;;;25.80;44.70;;;;;;6097376;28;20079;-40
2022/07/12 14:55:49;;;;;;;0.40;0.20;;;25.90;44.60;;;;;;6102410;28;20220;-40
2022/07/12 14:58:51;;;;;;;0.52;0.20;;;25.80;44.50;;;;;;6104038;28;20051;-42
2022/07/12 15:01:53;;;;;;;0.20;0.20;;;25.90;44.60;;;;;;6122457;28;20044;-41
2022/07/12 15:04:55;;;;;;;0.60;0.30;;;25.90;44.50;;;;;;6074911;28;20054;-40
2022/07/12 15:07:57;;;;;;;0.65;0.20;;;25.90;44.50;;;;;;6121290;28;20043;-42
2022/07/12 15:10:59;;;;;;;0.20;0.20;;;25.90;44.50;;;;;;6123925;28;20043;-40
2022/07/12 15:14:01;;;;;;;0.17;0.17;;;25.90;44.30;;;;;;6093562;28;21444;-42
2022/07/12 15:17:03;;;;;;;0.20;0.20;;;26.00;44.30;;;;;;6071454;28;20048;-40
2022/07/12 15:20:06;;;;;;;0.30;0.10;;;25.80;44.20;;;;;;6087669;28;20184;-43
2022/07/12 15:23:07;;;;;;;0.20;0.20;;;25.90;44.20;;;;;;6100660;28;20047;-43
2022/07/12 15:26:10;;;;;;;0.10;0.10;;;25.90;44.10;;;;;;6109128;28;21598;-41
2022/07/12 15:29:12;;;;;;;0.20;0.20;;;26.00;44.10;;;;;;6099219;28;20155;-41
2022/07/12 15:32:14;;;;;;;0.22;0.17;;;26.00;44.10;;;;;;6083259;28;20128;-40
2022/07/12 15:35:15;;;;;;;0.20;0.20;;;26.00;44.00;;;;;;6098545;28;20131;-40
2022/07/12 15:38:17;;;;;;;0.45;0.25;;;26.00;44.10;;;;;;6140289;28;20424;-41
2022/07/12 15:41:19;;;;;;;0.10;0.10;;;26.00;44.00;;;;;;6141324;28;20042;-43
2022/07/12 15:44:22;;;;;;;0.25;0.20;;;26.00;44.00;;;;;;6146346;28;20151;-41
2022/07/12 15:47:23;;;;;;;0.30;0.20;;;26.00;44.00;;;;;;6139441;28;20165;-40
2022/07/12 15:50:25;;;;;;;0.68;0.30;;;26.00;44.00;;;;;;6123102;28;21231;-43
2022/07/12 15:53:28;;;;;;;0.20;0.20;;;26.10;44.00;;;;;;6151604;28;20075;-42
2022/07/12 15:56:30;;;;;;;0.35;0.32;;;26.10;44.00;;;;;;6161808;28;20172;-42
2022/07/12 15:59:32;;;;;;;0.10;0.10;;;26.00;43.90;;;;;;6155372;28;20044;-42
2022/07/12 16:02:34;;;;;;;1.08;0.20;;;26.00;43.90;;;;;;6149489;28;20036;-41
2022/07/12 16:05:36;;;;;;;0.20;0.20;;;26.10;43.80;;;;;;6118893;28;20053;-40
2022/07/12 16:08:39;;;;;;;0.20;0.10;;;26.10;43.80;;;;;;6155452;28;20768;-41
2022/07/12 16:11:41;;;;;;;0.22;0.20;;;25.90;43.70;;;;;;6150905;28;20198;-42